sensor_id;sensor_type;location;lat;lon;timestamp;pressure;altitude;pressure_sealevel;temperature;humidity
53522;BME280;39398;48.382;9.802;2023-04-09T00:02:18;94360.22;;;5.29;100.00
53522;BME280;39398;48.382;9.802;2023-04-09T00:07:20;94351.00;;;5.25;100.00
53522;BME280;39398;48.382;9.802;2023-04-09T00:12:22;94349.97;;;5.18;100.00
53522;BME280;39398;48.382;9.802;2023-04-09T00:17:24;94351.78;;;5.17;100.00
53522;BME280;39398;48.382;9.802;2023-04-09T00:22:26;94345.03;;;5.50;100.00
53522;BME280;39398;48.382;9.802;2023-04-09T00:27:28;94343.63;;;5.56;100.00
53522;BME280;39398;48.382;9.802;2023-04-09T00:32:30;94350.34;;;5.41;100.00
53522;BME280;39398;48.382;9.802;2023-04-09T00:37:31;94351.09;;;4.87;100.00
53522;BME280;39398;48.382;9.802;2023-04-09T00:42:35;94346.53;;;5.53;100.00
53522;BME280;39398;48.382;9.802;2023-04-09T00:47:37;94351.03;;;4.97;100.00
53522;BME280;39398;48.382;9.802;2023-04-09T00:52:39;94349.41;;;4.41;100.00
53522;BME280;39398;48.382;9.802;2023-04-09T00:57:41;94356.06;;;4.26;100.00
53522;BME280;39398;48.382;9.802;2023-04-09T01:02:44;94355.53;;;4.22;100.00
53522;BME280;39398;48.382;9.802;2023-04-09T01:07:54;94358.75;;;4.34;100.00
53522;BME280;39398;48.382;9.802;2023-04-09T01:13:05;94356.06;;;4.26;100.00
53522;BME280;39398;48.382;9.802;2023-04-09T01:18:10;94351.00;;;4.14;100.00
53522;BME280;39398;48.382;9.802;2023-04-09T01:23:18;94347.66;;;4.32;100.00
53522;BME280;39398;48.382;9.802;2023-04-09T01:28:24;94347.50;;;4.33;100.00
53522;BME280;39398;48.382;9.802;2023-04-09T01:33:29;94342.06;;;4.07;100.00
53522;BME280;39398;48.382;9.802;2023-04-09T01:38:32;94343.47;;;3.92;100.00
53522;BME280;39398;48.382;9.802;2023-04-09T01:43:37;94342.91;;;4.08;100.00
53522;BME280;39398;48.382;9.802;2023-04-09T01:48:39;94343.03;;;4.16;100.00
53522;BME280;39398;48.382;9.802;2023-04-09T01:53:41;94341.66;;;4.12;100.00
53522;BME280;39398;48.382;9.802;2023-04-09T01:58:43;94349.53;;;3.83;100.00
53522;BME280;39398;48.382;9.802;2023-04-09T02:03:47;94345.47;;;4.17;100.00
53522;BME280;39398;48.382;9.802;2023-04-09T02:08:52;94352.72;;;3.96;100.00
53522;BME280;39398;48.382;9.802;2023-04-09T02:13:57;94345.00;;;3.85;100.00
53522;BME280;39398;48.382;9.802;2023-04-09T02:18:58;94346.09;;;4.39;100.00
53522;BME280;39398;48.382;9.802;2023-04-09T02:24:00;94344.03;;;3.95;100.00
53522;BME280;39398;48.382;9.802;2023-04-09T02:29:03;94349.63;;;4.10;100.00
53522;BME280;39398;48.382;9.802;2023-04-09T02:34:05;94341.69;;;4.02;100.00
53522;BME280;39398;48.382;9.802;2023-04-09T02:39:07;94342.69;;;3.82;100.00
53522;BME280;39398;48.382;9.802;2023-04-09T02:44:09;94337.06;;;3.86;100.00
53522;BME280;39398;48.382;9.802;2023-04-09T02:49:11;94346.66;;;3.76;100.00
53522;BME280;39398;48.382;9.802;2023-04-09T02:54:12;94344.88;;;3.96;100.00
53522;BME280;39398;48.382;9.802;2023-04-09T02:59:15;94340.50;;;3.77;100.00
53522;BME280;39398;48.382;9.802;2023-04-09T03:04:17;94341.56;;;3.94;100.00
53522;BME280;39398;48.382;9.802;2023-04-09T03:09:18;94338.72;;;3.68;100.00
53522;BME280;39398;48.382;9.802;2023-04-09T03:14:21;94332.16;;;3.64;100.00
53522;BME280;39398;48.382;9.802;2023-04-09T03:19:23;94338.19;;;3.64;100.00
53522;BME280;39398;48.382;9.802;2023-04-09T03:24:24;94334.91;;;3.43;100.00
53522;BME280;39398;48.382;9.802;2023-04-09T03:29:27;94327.59;;;3.56;100.00
53522;BME280;39398;48.382;9.802;2023-04-09T03:34:29;94334.63;;;3.46;100.00
53522;BME280;39398;48.382;9.802;2023-04-09T03:39:30;94335.88;;;3.42;100.00
53522;BME280;39398;48.382;9.802;2023-04-09T03:44:33;94329.94;;;3.49;100.00
53522;BME280;39398;48.382;9.802;2023-04-09T03:49:59;94330.09;;;3.58;100.00
53522;BME280;39398;48.382;9.802;2023-04-09T03:55:01;94334.88;;;3.53;100.00
53522;BME280;39398;48.382;9.802;2023-04-09T04:00:06;94336.13;;;3.58;100.00
53522;BME280;39398;48.382;9.802;2023-04-09T04:05:07;94341.91;;;3.52;100.00
53522;BME280;39398;48.382;9.802;2023-04-09T04:10:09;94335.88;;;3.42;100.00
53522;BME280;39398;48.382;9.802;2023-04-09T04:15:12;94329.94;;;3.49;100.00
53522;BME280;39398;48.382;9.802;2023-04-09T04:20:14;94333.91;;;3.44;100.00
53522;BME280;39398;48.382;9.802;2023-04-09T04:25:16;94332.44;;;3.61;100.00
53522;BME280;39398;48.382;9.802;2023-04-09T04:30:19;94327.28;;;3.88;100.00
53522;BME280;39398;48.382;9.802;2023-04-09T04:35:20;94331.56;;;3.70;100.00
53522;BME280;39398;48.382;9.802;2023-04-09T04:40:22;94336.50;;;3.83;100.00
53522;BME280;39398;48.382;9.802;2023-04-09T04:45:25;94335.13;;;3.79;100.00
53522;BME280;39398;48.382;9.802;2023-04-09T04:50:27;94344.34;;;3.73;100.00
53522;BME280;39398;48.382;9.802;2023-04-09T04:55:28;94345.75;;;3.67;100.00
53522;BME280;39398;48.382;9.802;2023-04-09T05:00:31;94351.22;;;3.84;100.00
53522;BME280;39398;48.382;9.802;2023-04-09T05:05:33;94347.31;;;3.97;100.00
53522;BME280;39398;48.382;9.802;2023-04-09T05:10:34;94345.28;;;4.38;100.00
53522;BME280;39398;48.382;9.802;2023-04-09T05:15:40;94341.72;;;4.30;100.00
53522;BME280;39398;48.382;9.802;2023-04-09T05:20:42;94355.44;;;3.94;100.00
53522;BME280;39398;48.382;9.802;2023-04-09T05:25:43;94355.69;;;4.01;100.00
53522;BME280;39398;48.382;9.802;2023-04-09T05:30:46;94372.78;;;3.76;100.00
53522;BME280;39398;48.382;9.802;2023-04-09T05:35:48;94375.66;;;3.83;100.00
53522;BME280;39398;48.382;9.802;2023-04-09T05:40:50;94365.22;;;3.92;100.00
53522;BME280;39398;48.382;9.802;2023-04-09T05:45:53;94366.13;;;4.11;100.00
53522;BME280;39398;48.382;9.802;2023-04-09T05:50:54;94365.78;;;3.96;100.00
53522;BME280;39398;48.382;9.802;2023-04-09T05:55:56;94365.91;;;4.41;100.00
53522;BME280;39398;48.382;9.802;2023-04-09T06:00:59;94360.47;;;4.25;100.00
53522;BME280;39398;48.382;9.802;2023-04-09T06:06:00;94365.38;;;4.65;100.00
53522;BME280;39398;48.382;9.802;2023-04-09T06:11:02;94368.66;;;4.40;100.00
53522;BME280;39398;48.382;9.802;2023-04-09T06:16:06;94369.88;;;4.83;100.00
53522;BME280;39398;48.382;9.802;2023-04-09T06:21:08;94374.03;;;4.76;100.00
53522;BME280;39398;48.382;9.802;2023-04-09T06:26:09;94372.91;;;4.51;100.00
53522;BME280;39398;48.382;9.802;2023-04-09T06:31:12;94368.56;;;4.32;100.00
53522;BME280;39398;48.382;9.802;2023-04-09T06:36:14;94369.34;;;4.97;100.00
53522;BME280;39398;48.382;9.802;2023-04-09T06:41:19;94372.56;;;4.63;100.00
53522;BME280;39398;48.382;9.802;2023-04-09T06:46:22;94374.16;;;5.02;100.00
53522;BME280;39398;48.382;9.802;2023-04-09T06:51:24;94378.31;;;5.22;100.00
53522;BME280;39398;48.382;9.802;2023-04-09T06:56:25;94384.44;;;4.58;100.00
53522;BME280;39398;48.382;9.802;2023-04-09T07:01:29;94386.06;;;4.22;100.00
53522;BME280;39398;48.382;9.802;2023-04-09T07:06:31;94393.91;;;4.22;100.00
53522;BME280;39398;48.382;9.802;2023-04-09T07:11:32;94397.25;;;3.75;100.00
53522;BME280;39398;48.382;9.802;2023-04-09T07:16:35;94410.88;;;3.69;100.00
53522;BME280;39398;48.382;9.802;2023-04-09T07:21:37;94408.41;;;3.67;100.00
53522;BME280;39398;48.382;9.802;2023-04-09T07:26:38;94421.81;;;4.11;100.00
53522;BME280;39398;48.382;9.802;2023-04-09T07:31:41;94411.25;;;4.60;100.00
53522;BME280;39398;48.382;9.802;2023-04-09T07:36:43;94399.63;;;4.72;100.00
53522;BME280;39398;48.382;9.802;2023-04-09T07:41:44;94403.63;;;5.85;100.00
53522;BME280;39398;48.382;9.802;2023-04-09T07:46:47;94410.03;;;5.55;100.00
53522;BME280;39398;48.382;9.802;2023-04-09T07:51:49;94411.97;;;4.89;100.00
53522;BME280;39398;48.382;9.802;2023-04-09T07:56:51;94413.41;;;5.02;100.00
53522;BME280;39398;48.382;9.802;2023-04-09T08:01:54;94418.34;;;4.77;100.00
53522;BME280;39398;48.382;9.802;2023-04-09T08:06:56;94424.38;;;5.15;100.00
53522;BME280;39398;48.382;9.802;2023-04-09T08:11:57;94420.94;;;5.15;100.00
53522;BME280;39398;48.382;9.802;2023-04-09T08:17:00;94418.53;;;5.49;100.00
53522;BME280;39398;48.382;9.802;2023-04-09T08:22:02;94427.38;;;5.20;100.00
53522;BME280;39398;48.382;9.802;2023-04-09T08:27:03;94428.72;;;5.24;100.00
53522;BME280;39398;48.382;9.802;2023-04-09T08:32:06;94429.34;;;5.36;100.00
53522;BME280;39398;48.382;9.802;2023-04-09T08:37:08;94436.97;;;5.02;100.00
53522;BME280;39398;48.382;9.802;2023-04-09T08:42:10;94434.44;;;5.38;100.00
53522;BME280;39398;48.382;9.802;2023-04-09T08:47:13;94434.13;;;5.41;100.00
53522;BME280;39398;48.382;9.802;2023-04-09T08:52:15;94443.63;;;6.05;100.00
53522;BME280;39398;48.382;9.802;2023-04-09T08:57:16;94439.72;;;6.53;100.00
53522;BME280;39398;48.382;9.802;2023-04-09T09:02:19;94428.78;;;6.92;100.00
53522;BME280;39398;48.382;9.802;2023-04-09T09:07:21;94436.84;;;6.64;100.00
53522;BME280;39398;48.382;9.802;2023-04-09T09:12:33;94437.38;;;6.76;100.00
53522;BME280;39398;48.382;9.802;2023-04-09T09:17:52;94442.22;;;7.90;100.00
53522;BME280;39398;48.382;9.802;2023-04-09T09:22:54;94439.78;;;7.88;100.00
53522;BME280;39398;48.382;9.802;2023-04-09T09:28:06;94433.00;;;7.94;100.00
53522;BME280;39398;48.382;9.802;2023-04-09T09:33:10;94432.22;;;8.34;100.00
53522;BME280;39398;48.382;9.802;2023-04-09T09:38:11;94435.31;;;7.97;100.00
53522;BME280;39398;48.382;9.802;2023-04-09T09:43:13;94432.44;;;7.41;100.00
53522;BME280;39398;48.382;9.802;2023-04-09T09:48:16;94432.03;;;8.03;98.20
53522;BME280;39398;48.382;9.802;2023-04-09T09:53:21;94423.44;;;7.60;100.00
53522;BME280;39398;48.382;9.802;2023-04-09T09:58:27;94424.13;;;7.87;88.58
53522;BME280;39398;48.382;9.802;2023-04-09T10:03:33;94418.91;;;8.44;93.33
53522;BME280;39398;48.382;9.802;2023-04-09T10:08:36;94416.91;;;8.13;88.59
53522;BME280;39398;48.382;9.802;2023-04-09T10:13:45;94411.66;;;8.54;96.35
53522;BME280;39398;48.382;9.802;2023-04-09T10:18:50;94409.66;;;8.65;84.54
53522;BME280;39398;48.382;9.802;2023-04-09T10:23:52;94400.97;;;9.12;93.88
53522;BME280;39398;48.382;9.802;2023-04-09T10:29:13;94411.41;;;9.36;74.97
53522;BME280;39398;48.382;9.802;2023-04-09T10:34:17;94413.41;;;9.34;69.02
53522;BME280;39398;48.382;9.802;2023-04-09T10:39:19;94415.06;;;9.27;69.28
53522;BME280;39398;48.382;9.802;2023-04-09T10:44:21;94413.09;;;9.60;72.73
53522;BME280;39398;48.382;9.802;2023-04-09T10:49:25;94402.94;;;10.03;63.58
53522;BME280;39398;48.382;9.802;2023-04-09T10:54:37;94399.41;;;9.65;63.67
53522;BME280;39398;48.382;9.802;2023-04-09T10:59:40;94389.53;;;9.67;62.81
53522;BME280;39398;48.382;9.802;2023-04-09T11:04:49;94387.59;;;10.07;71.13
53522;BME280;39398;48.382;9.802;2023-04-09T11:09:53;94391.34;;;10.12;64.95
53522;BME280;39398;48.382;9.802;2023-04-09T11:14:55;94381.44;;;10.52;64.28
53522;BME280;39398;48.382;9.802;2023-04-09T11:19:58;94378.44;;;10.40;55.68
53522;BME280;39398;48.382;9.802;2023-04-09T11:25:00;94383.09;;;9.38;56.85
53522;BME280;39398;48.382;9.802;2023-04-09T11:30:01;94390.16;;;9.38;59.94
53522;BME280;39398;48.382;9.802;2023-04-09T11:35:10;94387.63;;;9.98;56.71
53522;BME280;39398;48.382;9.802;2023-04-09T11:40:16;94379.47;;;10.08;54.34
53522;BME280;39398;48.382;9.802;2023-04-09T11:45:19;94380.66;;;10.81;57.50
53522;BME280;39398;48.382;9.802;2023-04-09T11:50:22;94372.25;;;10.25;55.74
53522;BME280;39398;48.382;9.802;2023-04-09T11:55:26;94384.28;;;10.51;56.51
53522;BME280;39398;48.382;9.802;2023-04-09T12:00:28;94379.53;;;10.61;56.49
53522;BME280;39398;48.382;9.802;2023-04-09T12:05:32;94378.44;;;11.29;54.43
53522;BME280;39398;48.382;9.802;2023-04-09T12:10:36;94373.91;;;10.64;53.22
53522;BME280;39398;48.382;9.802;2023-04-09T12:15:40;94381.63;;;10.65;55.18
53522;BME280;39398;48.382;9.802;2023-04-09T12:20:45;94383.19;;;11.19;55.50
53522;BME280;39398;48.382;9.802;2023-04-09T12:25:47;94380.56;;;10.60;52.83
53522;BME280;39398;48.382;9.802;2023-04-09T12:30:49;94378.69;;;10.45;56.40
53522;BME280;39398;48.382;9.802;2023-04-09T12:35:52;94377.59;;;10.17;55.48
53522;BME280;39398;48.382;9.802;2023-04-09T12:40:54;94379.16;;;10.49;55.29
53522;BME280;39398;48.382;9.802;2023-04-09T12:45:55;94373.41;;;10.45;54.76
53522;BME280;39398;48.382;9.802;2023-04-09T12:50:58;94370.94;;;9.83;54.28
53522;BME280;39398;48.382;9.802;2023-04-09T12:56:00;94370.28;;;10.04;52.62
53522;BME280;39398;48.382;9.802;2023-04-09T13:01:01;94364.31;;;10.10;52.47
53522;BME280;39398;48.382;9.802;2023-04-09T13:06:05;94366.16;;;10.47;53.72
53522;BME280;39398;48.382;9.802;2023-04-09T13:11:06;94360.88;;;10.77;52.20
53522;BME280;39398;48.382;9.802;2023-04-09T13:16:08;94364.44;;;10.84;52.68
53522;BME280;39398;48.382;9.802;2023-04-09T13:21:11;94359.97;;;10.40;54.09
53522;BME280;39398;48.382;9.802;2023-04-09T13:26:12;94358.94;;;10.41;56.64
53522;BME280;39398;48.382;9.802;2023-04-09T13:31:14;94360.50;;;10.51;54.99
53522;BME280;39398;48.382;9.802;2023-04-09T13:36:16;94353.59;;;10.64;55.25
53522;BME280;39398;48.382;9.802;2023-04-09T13:41:18;94351.06;;;10.56;54.63
53522;BME280;39398;48.382;9.802;2023-04-09T13:46:20;94341.75;;;10.75;52.68
53522;BME280;39398;48.382;9.802;2023-04-09T13:51:23;94344.84;;;10.93;52.43
53522;BME280;39398;48.382;9.802;2023-04-09T13:56:25;94342.13;;;11.53;50.70
53522;BME280;39398;48.382;9.802;2023-04-09T14:01:27;94334.22;;;10.87;50.84
53522;BME280;39398;48.382;9.802;2023-04-09T14:06:30;94343.13;;;10.41;53.75
53522;BME280;39398;48.382;9.802;2023-04-09T14:11:31;94343.13;;;10.41;52.22
53522;BME280;39398;48.382;9.802;2023-04-09T14:16:33;94329.00;;;10.34;52.67
53522;BME280;39398;48.382;9.802;2023-04-09T14:21:36;94321.16;;;11.15;53.99
53522;BME280;39398;48.382;9.802;2023-04-09T14:26:37;94321.66;;;11.40;50.90
53522;BME280;39398;48.382;9.802;2023-04-09T14:31:39;94315.38;;;11.26;50.92
53522;BME280;39398;48.382;9.802;2023-04-09T14:36:42;94317.91;;;11.34;49.62
53522;BME280;39398;48.382;9.802;2023-04-09T14:41:44;94318.81;;;11.41;51.29
53522;BME280;39398;48.382;9.802;2023-04-09T14:46:45;94305.13;;;11.38;51.90
53522;BME280;39398;48.382;9.802;2023-04-09T14:51:48;94311.44;;;10.71;51.32
53522;BME280;39398;48.382;9.802;2023-04-09T14:56:50;94314.00;;;10.64;55.89
53522;BME280;39398;48.382;9.802;2023-04-09T15:01:51;94314.81;;;10.80;51.50
53522;BME280;39398;48.382;9.802;2023-04-09T15:06:54;94296.59;;;11.36;50.06
53522;BME280;39398;48.382;9.802;2023-04-09T15:11:56;94299.88;;;10.87;48.74
53522;BME280;39398;48.382;9.802;2023-04-09T15:16:58;94298.28;;;11.44;48.19
53522;BME280;39398;48.382;9.802;2023-04-09T15:22:00;94287.66;;;11.37;47.69
53522;BME280;39398;48.382;9.802;2023-04-09T15:27:02;94283.13;;;11.31;47.40
53522;BME280;39398;48.382;9.802;2023-04-09T15:32:04;94290.88;;;11.54;51.32
53522;BME280;39398;48.382;9.802;2023-04-09T15:37:07;94290.75;;;10.89;49.33
53522;BME280;39398;48.382;9.802;2023-04-09T15:42:08;94299.63;;;10.37;51.26
53522;BME280;39398;48.382;9.802;2023-04-09T15:47:12;94311.63;;;10.55;57.34
53522;BME280;39398;48.382;9.802;2023-04-09T15:52:15;94306.91;;;10.12;55.71
53522;BME280;39398;48.382;9.802;2023-04-09T15:57:17;94305.16;;;10.05;55.29
53522;BME280;39398;48.382;9.802;2023-04-09T16:02:19;94301.53;;;10.43;55.46
53522;BME280;39398;48.382;9.802;2023-04-09T16:07:22;94307.09;;;10.63;52.26
53522;BME280;39398;48.382;9.802;2023-04-09T16:12:23;94306.63;;;10.75;56.69
53522;BME280;39398;48.382;9.802;2023-04-09T16:17:25;94315.47;;;10.67;54.88
53522;BME280;39398;48.382;9.802;2023-04-09T16:22:28;94309.09;;;10.46;53.87
53522;BME280;39398;48.382;9.802;2023-04-09T16:27:29;94304.97;;;10.74;53.36
53522;BME280;39398;48.382;9.802;2023-04-09T16:32:31;94304.81;;;10.60;56.69
53522;BME280;39398;48.382;9.802;2023-04-09T16:37:34;94297.69;;;10.61;53.38
53522;BME280;39398;48.382;9.802;2023-04-09T16:42:35;94303.16;;;10.74;52.43
53522;BME280;39398;48.382;9.802;2023-04-09T16:47:37;94291.78;;;10.59;50.97
53522;BME280;39398;48.382;9.802;2023-04-09T16:52:40;94303.34;;;10.73;55.15
53522;BME280;39398;48.382;9.802;2023-04-09T16:57:42;94312.41;;;10.25;54.05
53522;BME280;39398;48.382;9.802;2023-04-09T17:02:43;94315.22;;;9.86;54.75
53522;BME280;39398;48.382;9.802;2023-04-09T17:07:46;94311.34;;;9.97;57.59
53522;BME280;39398;48.382;9.802;2023-04-09T17:12:48;94316.88;;;9.64;58.53
53522;BME280;39398;48.382;9.802;2023-04-09T17:17:49;94317.16;;;9.69;59.68
53522;BME280;39398;48.382;9.802;2023-04-09T17:22:52;94321.69;;;9.61;58.78
53522;BME280;39398;48.382;9.802;2023-04-09T17:27:54;94318.19;;;9.37;59.42
53522;BME280;39398;48.382;9.802;2023-04-09T17:32:55;94328.81;;;9.52;59.89
53522;BME280;39398;48.382;9.802;2023-04-09T17:37:58;94327.81;;;9.53;59.80
53522;BME280;39398;48.382;9.802;2023-04-09T17:43:00;94336.28;;;9.40;59.36
53522;BME280;39398;48.382;9.802;2023-04-09T17:48:02;94334.06;;;9.29;60.61
53522;BME280;39398;48.382;9.802;2023-04-09T17:53:05;94345.41;;;9.29;61.87
53522;BME280;39398;48.382;9.802;2023-04-09T17:58:06;94347.09;;;8.91;65.33
53522;BME280;39398;48.382;9.802;2023-04-09T18:03:08;94343.09;;;9.03;63.83
53522;BME280;39398;48.382;9.802;2023-04-09T18:08:11;94350.06;;;8.88;66.07
53522;BME280;39398;48.382;9.802;2023-04-09T18:13:12;94347.34;;;8.65;65.57
53522;BME280;39398;48.382;9.802;2023-04-09T18:18:14;94350.94;;;8.64;66.21
53522;BME280;39398;48.382;9.802;2023-04-09T18:23:17;94360.66;;;8.64;66.67
53522;BME280;39398;48.382;9.802;2023-04-09T18:28:18;94352.97;;;8.37;67.49
53522;BME280;39398;48.382;9.802;2023-04-09T18:33:20;94361.03;;;8.44;68.88
53522;BME280;39398;48.382;9.802;2023-04-09T18:38:23;94363.00;;;8.50;68.23
53522;BME280;39398;48.382;9.802;2023-04-09T18:43:24;94367.25;;;8.35;68.65
53522;BME280;39398;48.382;9.802;2023-04-09T18:48:26;94376.34;;;8.41;68.42
53522;BME280;39398;48.382;9.802;2023-04-09T18:53:29;94376.63;;;8.29;69.07
53522;BME280;39398;48.382;9.802;2023-04-09T18:58:30;94383.56;;;8.14;69.96
53522;BME280;39398;48.382;9.802;2023-04-09T19:03:32;94379.44;;;8.28;69.73
53522;BME280;39398;48.382;9.802;2023-04-09T19:08:35;94387.34;;;8.11;70.44
53522;BME280;39398;48.382;9.802;2023-04-09T19:13:39;94390.78;;;8.04;71.57
53522;BME280;39398;48.382;9.802;2023-04-09T19:18:40;94389.31;;;7.93;72.38
53522;BME280;39398;48.382;9.802;2023-04-09T19:23:43;94402.63;;;7.83;72.15
53522;BME280;39398;48.382;9.802;2023-04-09T19:28:44;94400.78;;;7.67;72.76
53522;BME280;39398;48.382;9.802;2023-04-09T19:33:46;94406.41;;;7.89;72.46
53522;BME280;39398;48.382;9.802;2023-04-09T19:38:49;94403.13;;;7.87;72.97
53522;BME280;39398;48.382;9.802;2023-04-09T19:43:51;94400.75;;;7.51;74.42
53522;BME280;39398;48.382;9.802;2023-04-09T19:48:52;94398.41;;;7.32;74.59
53522;BME280;39398;48.382;9.802;2023-04-09T19:53:55;94402.22;;;7.45;74.97
53522;BME280;39398;48.382;9.802;2023-04-09T19:58:57;94395.28;;;7.36;73.88
53522;BME280;39398;48.382;9.802;2023-04-09T20:03:58;94398.59;;;7.38;75.08
53522;BME280;39398;48.382;9.802;2023-04-09T20:09:02;94407.78;;;7.34;74.25
53522;BME280;39398;48.382;9.802;2023-04-09T20:14:03;94412.72;;;7.45;73.94
53522;BME280;39398;48.382;9.802;2023-04-09T20:19:05;94416.25;;;7.20;77.42
53522;BME280;39398;48.382;9.802;2023-04-09T20:24:08;94412.59;;;7.05;76.51
53522;BME280;39398;48.382;9.802;2023-04-09T20:29:09;94412.16;;;7.17;76.44
53522;BME280;39398;48.382;9.802;2023-04-09T20:34:13;94405.56;;;7.13;77.68
53522;BME280;39398;48.382;9.802;2023-04-09T20:39:15;94402.56;;;7.00;76.76
53522;BME280;39398;48.382;9.802;2023-04-09T20:44:17;94406.09;;;6.83;77.88
53522;BME280;39398;48.382;9.802;2023-04-09T20:49:18;94410.28;;;7.02;78.53
53522;BME280;39398;48.382;9.802;2023-04-09T20:54:21;94406.31;;;6.63;79.14
53522;BME280;39398;48.382;9.802;2023-04-09T20:59:23;94399.44;;;6.96;78.96
53522;BME280;39398;48.382;9.802;2023-04-09T21:04:24;94400.81;;;6.74;79.22
53522;BME280;39398;48.382;9.802;2023-04-09T21:09:27;94396.25;;;6.85;80.03
53522;BME280;39398;48.382;9.802;2023-04-09T21:14:29;94385.06;;;6.74;79.27
53522;BME280;39398;48.382;9.802;2023-04-09T21:19:31;94392.25;;;6.64;78.87
53522;BME280;39398;48.382;9.802;2023-04-09T21:24:33;94392.13;;;6.74;79.42
53522;BME280;39398;48.382;9.802;2023-04-09T21:29:35;94394.25;;;6.70;79.53
53522;BME280;39398;48.382;9.802;2023-04-09T21:34:37;94391.13;;;6.67;80.19
53522;BME280;39398;48.382;9.802;2023-04-09T21:39:40;94396.31;;;6.59;79.84
53522;BME280;39398;48.382;9.802;2023-04-09T21:44:41;94389.44;;;6.66;79.33
53522;BME280;39398;48.382;9.802;2023-04-09T21:49:43;94383.97;;;6.51;79.58
53522;BME280;39398;48.382;9.802;2023-04-09T21:54:45;94388.03;;;6.45;78.86
53522;BME280;39398;48.382;9.802;2023-04-09T21:59:47;94395.44;;;6.50;78.00
53522;BME280;39398;48.382;9.802;2023-04-09T22:04:49;94391.81;;;6.25;79.23
53522;BME280;39398;48.382;9.802;2023-04-09T22:09:53;94396.25;;;6.24;79.59
53522;BME280;39398;48.382;9.802;2023-04-09T22:14:55;94399.28;;;6.38;81.56
53522;BME280;39398;48.382;9.802;2023-04-09T22:19:57;94399.47;;;6.18;82.01
53522;BME280;39398;48.382;9.802;2023-04-09T22:25:00;94405.78;;;6.08;83.33
53522;BME280;39398;48.382;9.802;2023-04-09T22:30:02;94405.94;;;6.06;83.68
53522;BME280;39398;48.382;9.802;2023-04-09T22:35:04;94408.69;;;5.87;86.06
53522;BME280;39398;48.382;9.802;2023-04-09T22:40:08;94409.38;;;5.89;87.29
53522;BME280;39398;48.382;9.802;2023-04-09T22:45:10;94397.34;;;5.78;87.66
53522;BME280;39398;48.382;9.802;2023-04-09T22:50:12;94390.91;;;5.72;87.40
53522;BME280;39398;48.382;9.802;2023-04-09T22:55:15;94393.34;;;5.92;86.10
53522;BME280;39398;48.382;9.802;2023-04-09T23:00:16;94384.91;;;5.80;85.75
53522;BME280;39398;48.382;9.802;2023-04-09T23:05:18;94391.56;;;5.92;86.99
53522;BME280;39398;48.382;9.802;2023-04-09T23:10:21;94379.22;;;5.85;87.15
53522;BME280;39398;48.382;9.802;2023-04-09T23:15:22;94392.25;;;5.58;87.83
53522;BME280;39398;48.382;9.802;2023-04-09T23:20:24;94388.50;;;5.79;88.62
53522;BME280;39398;48.382;9.802;2023-04-09T23:25:27;94374.38;;;5.72;87.94
53522;BME280;39398;48.382;9.802;2023-04-09T23:30:29;94372.03;;;5.51;89.62
53522;BME280;39398;48.382;9.802;2023-04-09T23:35:30;94364.47;;;5.48;88.82
53522;BME280;39398;48.382;9.802;2023-04-09T23:40:33;94375.47;;;5.51;89.20
53522;BME280;39398;48.382;9.802;2023-04-09T23:45:35;94365.38;;;5.56;89.49
53522;BME280;39398;48.382;9.802;2023-04-09T23:50:37;94368.97;;;5.38;90.61
53522;BME280;39398;48.382;9.802;2023-04-09T23:55:40;94357.53;;;5.39;91.34
